sensor_id;sensor_type;location;lat;lon;timestamp;P1;durP1;ratioP1;P2;durP2;ratioP2
35795;SDS011;21916;52.428;13.302;2022-11-20T00:01:14;22.90;;;12.68;;
35795;SDS011;21916;52.428;13.302;2022-11-20T00:03:41;22.50;;;13.43;;
35795;SDS011;21916;52.428;13.302;2022-11-20T00:06:09;23.77;;;12.43;;
35795;SDS011;21916;52.428;13.302;2022-11-20T00:08:41;24.52;;;13.43;;
35795;SDS011;21916;52.428;13.302;2022-11-20T00:11:15;23.27;;;12.65;;
35795;SDS011;21916;52.428;13.302;2022-11-20T00:13:43;23.63;;;13.77;;
35795;SDS011;21916;52.428;13.302;2022-11-20T00:16:10;27.02;;;15.23;;
35795;SDS011;21916;52.428;13.302;2022-11-20T00:18:38;26.70;;;14.45;;
35795;SDS011;21916;52.428;13.302;2022-11-20T00:21:09;26.08;;;13.48;;
35795;SDS011;21916;52.428;13.302;2022-11-20T00:23:37;22.85;;;13.23;;
35795;SDS011;21916;52.428;13.302;2022-11-20T00:26:04;29.17;;;14.50;;
35795;SDS011;21916;52.428;13.302;2022-11-20T00:28:33;23.45;;;14.13;;
35795;SDS011;21916;52.428;13.302;2022-11-20T00:31:06;26.75;;;13.43;;
35795;SDS011;21916;52.428;13.302;2022-11-20T00:33:34;23.17;;;12.93;;
35795;SDS011;21916;52.428;13.302;2022-11-20T00:36:04;29.48;;;13.15;;
35795;SDS011;21916;52.428;13.302;2022-11-20T00:38:33;22.02;;;12.88;;
35795;SDS011;21916;52.428;13.302;2022-11-20T00:40:59;22.77;;;14.02;;
35795;SDS011;21916;52.428;13.302;2022-11-20T00:43:27;23.77;;;13.65;;
35795;SDS011;21916;52.428;13.302;2022-11-20T00:45:56;23.90;;;13.70;;
35795;SDS011;21916;52.428;13.302;2022-11-20T00:48:23;24.25;;;14.07;;
35795;SDS011;21916;52.428;13.302;2022-11-20T00:50:49;24.02;;;14.13;;
35795;SDS011;21916;52.428;13.302;2022-11-20T00:53:15;29.17;;;14.15;;
35795;SDS011;21916;52.428;13.302;2022-11-20T00:55:41;21.35;;;13.25;;
35795;SDS011;21916;52.428;13.302;2022-11-20T00:58:07;24.45;;;13.73;;
35795;SDS011;21916;52.428;13.302;2022-11-20T01:00:36;25.95;;;13.98;;
35795;SDS011;21916;52.428;13.302;2022-11-20T01:03:02;27.48;;;13.50;;
35795;SDS011;21916;52.428;13.302;2022-11-20T01:05:28;24.35;;;14.20;;
35795;SDS011;21916;52.428;13.302;2022-11-20T01:07:54;28.33;;;15.20;;
35795;SDS011;21916;52.428;13.302;2022-11-20T01:10:19;25.23;;;13.88;;
35795;SDS011;21916;52.428;13.302;2022-11-20T01:12:45;28.38;;;15.50;;
35795;SDS011;21916;52.428;13.302;2022-11-20T01:15:33;25.40;;;14.23;;
35795;SDS011;21916;52.428;13.302;2022-11-20T01:17:59;27.23;;;14.65;;
35795;SDS011;21916;52.428;13.302;2022-11-20T01:20:25;22.30;;;13.32;;
35795;SDS011;21916;52.428;13.302;2022-11-20T01:22:51;26.42;;;14.07;;
35795;SDS011;21916;52.428;13.302;2022-11-20T01:25:17;24.45;;;14.27;;
35795;SDS011;21916;52.428;13.302;2022-11-20T01:27:43;25.85;;;13.90;;
35795;SDS011;21916;52.428;13.302;2022-11-20T01:30:09;22.88;;;13.63;;
35795;SDS011;21916;52.428;13.302;2022-11-20T01:32:35;26.75;;;14.77;;
35795;SDS011;21916;52.428;13.302;2022-11-20T01:35:01;28.50;;;15.32;;
35795;SDS011;21916;52.428;13.302;2022-11-20T01:37:27;28.30;;;14.65;;
35795;SDS011;21916;52.428;13.302;2022-11-20T01:39:53;25.20;;;14.55;;
35795;SDS011;21916;52.428;13.302;2022-11-20T01:42:18;25.10;;;13.48;;
35795;SDS011;21916;52.428;13.302;2022-11-20T01:45:42;25.75;;;13.73;;
35795;SDS011;21916;52.428;13.302;2022-11-20T01:48:08;25.77;;;14.15;;
35795;SDS011;21916;52.428;13.302;2022-11-20T01:50:34;26.67;;;13.50;;
35795;SDS011;21916;52.428;13.302;2022-11-20T01:53:10;24.08;;;14.68;;
35795;SDS011;21916;52.428;13.302;2022-11-20T01:55:44;29.52;;;14.27;;
35795;SDS011;21916;52.428;13.302;2022-11-20T01:58:17;24.13;;;13.93;;
35795;SDS011;21916;52.428;13.302;2022-11-20T02:00:47;29.52;;;15.02;;
35795;SDS011;21916;52.428;13.302;2022-11-20T02:03:13;27.73;;;16.23;;
35795;SDS011;21916;52.428;13.302;2022-11-20T02:05:46;27.85;;;14.32;;
35795;SDS011;21916;52.428;13.302;2022-11-20T02:08:33;29.23;;;15.10;;
35795;SDS011;21916;52.428;13.302;2022-11-20T02:11:00;27.02;;;13.68;;
35795;SDS011;21916;52.428;13.302;2022-11-20T02:13:26;28.33;;;14.05;;
35795;SDS011;21916;52.428;13.302;2022-11-20T02:16:30;30.55;;;15.40;;
35795;SDS011;21916;52.428;13.302;2022-11-20T02:18:59;25.75;;;14.23;;
35795;SDS011;21916;52.428;13.302;2022-11-20T02:26:33;27.75;;;14.40;;
35795;SDS011;21916;52.428;13.302;2022-11-20T02:29:05;24.90;;;13.50;;
35795;SDS011;21916;52.428;13.302;2022-11-20T02:31:35;27.00;;;15.02;;
35795;SDS011;21916;52.428;13.302;2022-11-20T02:34:06;32.00;;;15.52;;
35795;SDS011;21916;52.428;13.302;2022-11-20T02:36:33;26.88;;;15.20;;
35795;SDS011;21916;52.428;13.302;2022-11-20T02:39:02;29.83;;;13.93;;
35795;SDS011;21916;52.428;13.302;2022-11-20T02:41:32;24.10;;;14.30;;
35795;SDS011;21916;52.428;13.302;2022-11-20T02:43:59;29.35;;;15.32;;
35795;SDS011;21916;52.428;13.302;2022-11-20T02:46:26;26.77;;;13.85;;
35795;SDS011;21916;52.428;13.302;2022-11-20T02:48:52;26.27;;;14.70;;
35795;SDS011;21916;52.428;13.302;2022-11-20T02:51:18;25.88;;;14.13;;
35795;SDS011;21916;52.428;13.302;2022-11-20T02:53:44;27.00;;;14.90;;
35795;SDS011;21916;52.428;13.302;2022-11-20T02:56:10;26.20;;;14.32;;
35795;SDS011;21916;52.428;13.302;2022-11-20T02:58:36;27.63;;;15.82;;
35795;SDS011;21916;52.428;13.302;2022-11-20T03:01:02;25.33;;;14.65;;
35795;SDS011;21916;52.428;13.302;2022-11-20T03:03:28;31.08;;;15.15;;
35795;SDS011;21916;52.428;13.302;2022-11-20T03:05:54;25.20;;;14.80;;
35795;SDS011;21916;52.428;13.302;2022-11-20T03:08:20;27.73;;;15.48;;
35795;SDS011;21916;52.428;13.302;2022-11-20T03:10:46;27.52;;;15.10;;
35795;SDS011;21916;52.428;13.302;2022-11-20T03:13:11;30.98;;;15.05;;
35795;SDS011;21916;52.428;13.302;2022-11-20T03:15:37;26.80;;;14.90;;
35795;SDS011;21916;52.428;13.302;2022-11-20T03:18:04;26.10;;;14.57;;
35795;SDS011;21916;52.428;13.302;2022-11-20T03:20:30;29.95;;;15.18;;
35795;SDS011;21916;52.428;13.302;2022-11-20T03:22:58;27.15;;;15.20;;
35795;SDS011;21916;52.428;13.302;2022-11-20T03:25:24;28.90;;;15.25;;
35795;SDS011;21916;52.428;13.302;2022-11-20T03:27:51;27.67;;;14.93;;
35795;SDS011;21916;52.428;13.302;2022-11-20T03:30:17;29.20;;;15.80;;
35795;SDS011;21916;52.428;13.302;2022-11-20T03:32:43;28.30;;;15.85;;
35795;SDS011;21916;52.428;13.302;2022-11-20T03:35:10;31.23;;;15.02;;
35795;SDS011;21916;52.428;13.302;2022-11-20T03:37:35;27.30;;;15.07;;
35795;SDS011;21916;52.428;13.302;2022-11-20T03:40:01;24.85;;;14.65;;
35795;SDS011;21916;52.428;13.302;2022-11-20T03:42:28;27.98;;;14.93;;
35795;SDS011;21916;52.428;13.302;2022-11-20T03:45:13;26.55;;;14.20;;
35795;SDS011;21916;52.428;13.302;2022-11-20T03:47:39;27.85;;;14.30;;
35795;SDS011;21916;52.428;13.302;2022-11-20T03:50:05;29.75;;;15.55;;
35795;SDS011;21916;52.428;13.302;2022-11-20T03:52:32;31.40;;;16.08;;
35795;SDS011;21916;52.428;13.302;2022-11-20T03:54:58;28.50;;;16.15;;
35795;SDS011;21916;52.428;13.302;2022-11-20T03:57:24;31.75;;;17.73;;
35795;SDS011;21916;52.428;13.302;2022-11-20T03:59:50;28.55;;;15.27;;
35795;SDS011;21916;52.428;13.302;2022-11-20T04:02:16;31.70;;;16.02;;
35795;SDS011;21916;52.428;13.302;2022-11-20T04:04:41;34.47;;;16.52;;
35795;SDS011;21916;52.428;13.302;2022-11-20T04:07:07;26.00;;;15.30;;
35795;SDS011;21916;52.428;13.302;2022-11-20T04:09:33;28.42;;;16.65;;
35795;SDS011;21916;52.428;13.302;2022-11-20T04:11:59;32.53;;;16.50;;
35795;SDS011;21916;52.428;13.302;2022-11-20T04:14:28;29.00;;;16.80;;
35795;SDS011;21916;52.428;13.302;2022-11-20T04:16:57;30.50;;;16.45;;
35795;SDS011;21916;52.428;13.302;2022-11-20T04:19:23;33.90;;;16.83;;
35795;SDS011;21916;52.428;13.302;2022-11-20T04:21:49;31.05;;;15.82;;
35795;SDS011;21916;52.428;13.302;2022-11-20T04:24:15;27.35;;;16.02;;
35795;SDS011;21916;52.428;13.302;2022-11-20T04:26:41;32.15;;;16.80;;
35795;SDS011;21916;52.428;13.302;2022-11-20T04:29:09;30.42;;;15.10;;
35795;SDS011;21916;52.428;13.302;2022-11-20T04:31:36;29.10;;;15.75;;
35795;SDS011;21916;52.428;13.302;2022-11-20T04:34:03;33.55;;;17.30;;
35795;SDS011;21916;52.428;13.302;2022-11-20T04:36:31;24.77;;;15.40;;
35795;SDS011;21916;52.428;13.302;2022-11-20T04:38:59;30.10;;;15.07;;
35795;SDS011;21916;52.428;13.302;2022-11-20T04:41:32;29.17;;;15.35;;
35795;SDS011;21916;52.428;13.302;2022-11-20T04:44:01;29.40;;;16.23;;
35795;SDS011;21916;52.428;13.302;2022-11-20T04:46:30;30.55;;;16.65;;
35795;SDS011;21916;52.428;13.302;2022-11-20T04:49:01;33.97;;;17.30;;
35795;SDS011;21916;52.428;13.302;2022-11-20T04:51:27;33.17;;;16.83;;
35795;SDS011;21916;52.428;13.302;2022-11-20T04:53:53;30.80;;;17.08;;
35795;SDS011;21916;52.428;13.302;2022-11-20T04:56:19;31.70;;;17.15;;
35795;SDS011;21916;52.428;13.302;2022-11-20T04:58:48;31.77;;;16.98;;
35795;SDS011;21916;52.428;13.302;2022-11-20T05:01:15;34.38;;;17.58;;
35795;SDS011;21916;52.428;13.302;2022-11-20T05:03:43;27.45;;;15.60;;
35795;SDS011;21916;52.428;13.302;2022-11-20T05:06:10;34.97;;;18.77;;
35795;SDS011;21916;52.428;13.302;2022-11-20T05:08:39;31.58;;;16.63;;
35795;SDS011;21916;52.428;13.302;2022-11-20T05:11:08;31.85;;;16.63;;
35795;SDS011;21916;52.428;13.302;2022-11-20T05:13:41;29.23;;;15.85;;
35795;SDS011;21916;52.428;13.302;2022-11-20T05:16:12;33.05;;;17.90;;
35795;SDS011;21916;52.428;13.302;2022-11-20T05:18:39;28.00;;;16.20;;
35795;SDS011;21916;52.428;13.302;2022-11-20T05:21:06;28.10;;;15.43;;
35795;SDS011;21916;52.428;13.302;2022-11-20T05:23:34;28.17;;;16.05;;
35795;SDS011;21916;52.428;13.302;2022-11-20T05:26:00;31.70;;;18.13;;
35795;SDS011;21916;52.428;13.302;2022-11-20T05:28:27;28.98;;;17.20;;
35795;SDS011;21916;52.428;13.302;2022-11-20T05:30:54;28.33;;;16.25;;
35795;SDS011;21916;52.428;13.302;2022-11-20T05:33:20;29.63;;;16.75;;
35795;SDS011;21916;52.428;13.302;2022-11-20T05:35:46;32.50;;;18.27;;
35795;SDS011;21916;52.428;13.302;2022-11-20T05:38:14;33.40;;;18.52;;
35795;SDS011;21916;52.428;13.302;2022-11-20T05:40:42;30.50;;;16.65;;
35795;SDS011;21916;52.428;13.302;2022-11-20T05:43:08;31.30;;;17.33;;
35795;SDS011;21916;52.428;13.302;2022-11-20T05:45:34;31.40;;;17.63;;
35795;SDS011;21916;52.428;13.302;2022-11-20T05:48:00;29.13;;;16.95;;
35795;SDS011;21916;52.428;13.302;2022-11-20T05:50:29;30.98;;;17.33;;
35795;SDS011;21916;52.428;13.302;2022-11-20T05:52:57;30.30;;;16.80;;
35795;SDS011;21916;52.428;13.302;2022-11-20T05:55:24;31.25;;;16.75;;
35795;SDS011;21916;52.428;13.302;2022-11-20T05:57:52;31.13;;;16.50;;
35795;SDS011;21916;52.428;13.302;2022-11-20T06:00:19;30.38;;;16.23;;
35795;SDS011;21916;52.428;13.302;2022-11-20T06:02:45;36.20;;;17.10;;
35795;SDS011;21916;52.428;13.302;2022-11-20T06:05:11;27.40;;;16.15;;
35795;SDS011;21916;52.428;13.302;2022-11-20T06:07:38;30.67;;;17.38;;
35795;SDS011;21916;52.428;13.302;2022-11-20T06:10:04;28.95;;;16.25;;
35795;SDS011;21916;52.428;13.302;2022-11-20T06:12:31;32.97;;;17.83;;
35795;SDS011;21916;52.428;13.302;2022-11-20T06:14:59;32.38;;;16.85;;
35795;SDS011;21916;52.428;13.302;2022-11-20T06:17:25;28.35;;;17.15;;
35795;SDS011;21916;52.428;13.302;2022-11-20T06:19:51;30.55;;;16.80;;
35795;SDS011;21916;52.428;13.302;2022-11-20T06:22:17;31.00;;;17.23;;
35795;SDS011;21916;52.428;13.302;2022-11-20T06:24:46;28.10;;;15.70;;
35795;SDS011;21916;52.428;13.302;2022-11-20T06:27:12;30.00;;;15.70;;
35795;SDS011;21916;52.428;13.302;2022-11-20T06:29:38;29.67;;;14.77;;
35795;SDS011;21916;52.428;13.302;2022-11-20T06:32:04;29.15;;;16.52;;
35795;SDS011;21916;52.428;13.302;2022-11-20T06:34:30;31.70;;;16.73;;
35795;SDS011;21916;52.428;13.302;2022-11-20T06:36:56;28.15;;;15.98;;
35795;SDS011;21916;52.428;13.302;2022-11-20T06:39:22;32.30;;;17.38;;
35795;SDS011;21916;52.428;13.302;2022-11-20T06:41:48;33.40;;;17.65;;
35795;SDS011;21916;52.428;13.302;2022-11-20T06:44:14;34.75;;;17.45;;
35795;SDS011;21916;52.428;13.302;2022-11-20T06:46:40;29.80;;;15.45;;
35795;SDS011;21916;52.428;13.302;2022-11-20T06:49:06;29.88;;;15.43;;
35795;SDS011;21916;52.428;13.302;2022-11-20T06:51:32;30.35;;;16.73;;
35795;SDS011;21916;52.428;13.302;2022-11-20T06:53:58;29.65;;;16.00;;
35795;SDS011;21916;52.428;13.302;2022-11-20T06:56:26;28.70;;;16.38;;
35795;SDS011;21916;52.428;13.302;2022-11-20T06:58:56;30.67;;;16.50;;
35795;SDS011;21916;52.428;13.302;2022-11-20T07:01:22;26.13;;;15.52;;
35795;SDS011;21916;52.428;13.302;2022-11-20T07:03:48;31.55;;;16.70;;
35795;SDS011;21916;52.428;13.302;2022-11-20T07:06:16;29.05;;;15.50;;
35795;SDS011;21916;52.428;13.302;2022-11-20T07:08:42;31.55;;;16.27;;
35795;SDS011;21916;52.428;13.302;2022-11-20T07:11:12;31.63;;;16.55;;
35795;SDS011;21916;52.428;13.302;2022-11-20T07:13:38;29.08;;;16.05;;
35795;SDS011;21916;52.428;13.302;2022-11-20T07:16:05;28.42;;;15.35;;
35795;SDS011;21916;52.428;13.302;2022-11-20T07:18:32;29.88;;;16.25;;
35795;SDS011;21916;52.428;13.302;2022-11-20T07:21:02;29.23;;;15.65;;
35795;SDS011;21916;52.428;13.302;2022-11-20T07:23:29;29.42;;;15.70;;
35795;SDS011;21916;52.428;13.302;2022-11-20T07:25:55;30.45;;;16.73;;
35795;SDS011;21916;52.428;13.302;2022-11-20T07:28:21;31.52;;;16.05;;
35795;SDS011;21916;52.428;13.302;2022-11-20T07:30:51;30.13;;;15.55;;
35795;SDS011;21916;52.428;13.302;2022-11-20T07:33:18;30.08;;;17.10;;
35795;SDS011;21916;52.428;13.302;2022-11-20T07:35:46;29.92;;;15.40;;
35795;SDS011;21916;52.428;13.302;2022-11-20T07:38:12;26.25;;;14.82;;
35795;SDS011;21916;52.428;13.302;2022-11-20T07:40:38;30.30;;;17.05;;
35795;SDS011;21916;52.428;13.302;2022-11-20T07:43:04;30.55;;;16.50;;
35795;SDS011;21916;52.428;13.302;2022-11-20T07:45:30;34.75;;;16.63;;
35795;SDS011;21916;52.428;13.302;2022-11-20T07:47:59;32.35;;;19.08;;
35795;SDS011;21916;52.428;13.302;2022-11-20T07:50:25;30.98;;;16.02;;
35795;SDS011;21916;52.428;13.302;2022-11-20T07:52:51;33.47;;;16.73;;
35795;SDS011;21916;52.428;13.302;2022-11-20T07:55:17;32.83;;;17.98;;
35795;SDS011;21916;52.428;13.302;2022-11-20T07:57:43;30.73;;;16.60;;
35795;SDS011;21916;52.428;13.302;2022-11-20T08:00:10;28.00;;;15.98;;
35795;SDS011;21916;52.428;13.302;2022-11-20T08:02:40;28.63;;;15.43;;
35795;SDS011;21916;52.428;13.302;2022-11-20T08:05:07;30.42;;;16.92;;
35795;SDS011;21916;52.428;13.302;2022-11-20T08:07:35;32.40;;;17.25;;
35795;SDS011;21916;52.428;13.302;2022-11-20T08:10:05;34.60;;;17.13;;
35795;SDS011;21916;52.428;13.302;2022-11-20T08:12:33;34.85;;;16.80;;
35795;SDS011;21916;52.428;13.302;2022-11-20T08:15:17;33.58;;;16.92;;
35795;SDS011;21916;52.428;13.302;2022-11-20T08:17:43;39.03;;;17.55;;
35795;SDS011;21916;52.428;13.302;2022-11-20T08:20:09;33.05;;;16.85;;
35795;SDS011;21916;52.428;13.302;2022-11-20T08:22:36;34.10;;;17.63;;
35795;SDS011;21916;52.428;13.302;2022-11-20T08:25:02;30.95;;;17.00;;
35795;SDS011;21916;52.428;13.302;2022-11-20T08:27:28;38.08;;;21.52;;
35795;SDS011;21916;52.428;13.302;2022-11-20T08:29:54;33.60;;;16.85;;
35795;SDS011;21916;52.428;13.302;2022-11-20T08:32:20;35.75;;;17.63;;
35795;SDS011;21916;52.428;13.302;2022-11-20T08:34:46;28.15;;;14.82;;
35795;SDS011;21916;52.428;13.302;2022-11-20T08:37:12;31.27;;;16.48;;
35795;SDS011;21916;52.428;13.302;2022-11-20T08:39:38;30.48;;;17.15;;
35795;SDS011;21916;52.428;13.302;2022-11-20T08:42:07;26.52;;;15.90;;
35795;SDS011;21916;52.428;13.302;2022-11-20T08:44:37;30.17;;;16.70;;
35795;SDS011;21916;52.428;13.302;2022-11-20T08:47:03;30.33;;;16.55;;
35795;SDS011;21916;52.428;13.302;2022-11-20T08:49:29;27.42;;;16.10;;
35795;SDS011;21916;52.428;13.302;2022-11-20T08:51:55;29.17;;;16.13;;
35795;SDS011;21916;52.428;13.302;2022-11-20T08:54:22;28.75;;;16.30;;
35795;SDS011;21916;52.428;13.302;2022-11-20T08:56:48;33.90;;;17.15;;
35795;SDS011;21916;52.428;13.302;2022-11-20T08:59:14;35.28;;;15.48;;
35795;SDS011;21916;52.428;13.302;2022-11-20T09:01:40;29.73;;;17.00;;
35795;SDS011;21916;52.428;13.302;2022-11-20T09:04:06;30.33;;;15.98;;
35795;SDS011;21916;52.428;13.302;2022-11-20T09:06:32;31.30;;;18.02;;
35795;SDS011;21916;52.428;13.302;2022-11-20T09:08:58;27.90;;;18.65;;
35795;SDS011;21916;52.428;13.302;2022-11-20T09:11:24;27.60;;;15.60;;
35795;SDS011;21916;52.428;13.302;2022-11-20T09:13:50;31.30;;;16.25;;
35795;SDS011;21916;52.428;13.302;2022-11-20T09:16:16;27.83;;;15.70;;
35795;SDS011;21916;52.428;13.302;2022-11-20T09:18:42;29.48;;;16.00;;
35795;SDS011;21916;52.428;13.302;2022-11-20T09:21:13;34.25;;;18.30;;
35795;SDS011;21916;52.428;13.302;2022-11-20T09:23:39;29.75;;;16.05;;
35795;SDS011;21916;52.428;13.302;2022-11-20T09:26:06;30.50;;;18.00;;
35795;SDS011;21916;52.428;13.302;2022-11-20T09:28:34;28.48;;;15.75;;
35795;SDS011;21916;52.428;13.302;2022-11-20T09:31:08;30.45;;;15.05;;
35795;SDS011;21916;52.428;13.302;2022-11-20T09:33:47;28.08;;;16.52;;
35795;SDS011;21916;52.428;13.302;2022-11-20T09:36:13;28.75;;;16.30;;
35795;SDS011;21916;52.428;13.302;2022-11-20T09:38:39;30.70;;;17.52;;
35795;SDS011;21916;52.428;13.302;2022-11-20T09:41:05;26.98;;;15.63;;
35795;SDS011;21916;52.428;13.302;2022-11-20T09:46:50;29.63;;;17.42;;
35795;SDS011;21916;52.428;13.302;2022-11-20T09:54:57;30.02;;;16.05;;
35795;SDS011;21916;52.428;13.302;2022-11-20T09:57:35;32.97;;;17.73;;
35795;SDS011;21916;52.428;13.302;2022-11-20T10:00:04;27.58;;;16.30;;
35795;SDS011;21916;52.428;13.302;2022-11-20T10:05:18;30.83;;;16.23;;
35795;SDS011;21916;52.428;13.302;2022-11-20T10:08:07;29.00;;;17.25;;
35795;SDS011;21916;52.428;13.302;2022-11-20T10:10:46;27.92;;;16.45;;
35795;SDS011;21916;52.428;13.302;2022-11-20T10:16:12;26.75;;;16.25;;
35795;SDS011;21916;52.428;13.302;2022-11-20T10:29:12;29.63;;;17.05;;
35795;SDS011;21916;52.428;13.302;2022-11-20T10:31:52;33.42;;;17.52;;
35795;SDS011;21916;52.428;13.302;2022-11-20T10:36:56;29.30;;;16.42;;
35795;SDS011;21916;52.428;13.302;2022-11-20T10:39:36;27.48;;;16.58;;
35795;SDS011;21916;52.428;13.302;2022-11-20T10:42:08;27.98;;;16.50;;
35795;SDS011;21916;52.428;13.302;2022-11-20T10:44:38;31.20;;;16.92;;
35795;SDS011;21916;52.428;13.302;2022-11-20T10:47:27;24.38;;;14.75;;
35795;SDS011;21916;52.428;13.302;2022-11-20T10:49:55;29.88;;;16.15;;
35795;SDS011;21916;52.428;13.302;2022-11-20T10:58:14;24.98;;;14.95;;
35795;SDS011;21916;52.428;13.302;2022-11-20T11:01:14;26.67;;;15.68;;
35795;SDS011;21916;52.428;13.302;2022-11-20T11:03:45;27.88;;;16.27;;
35795;SDS011;21916;52.428;13.302;2022-11-20T11:06:37;26.67;;;15.93;;
35795;SDS011;21916;52.428;13.302;2022-11-20T11:09:28;30.75;;;16.70;;
35795;SDS011;21916;52.428;13.302;2022-11-20T11:11:57;26.65;;;15.32;;
35795;SDS011;21916;52.428;13.302;2022-11-20T11:14:23;24.90;;;13.75;;
35795;SDS011;21916;52.428;13.302;2022-11-20T11:16:54;25.90;;;14.82;;
35795;SDS011;21916;52.428;13.302;2022-11-20T11:19:21;24.60;;;13.20;;
35795;SDS011;21916;52.428;13.302;2022-11-20T11:21:48;20.67;;;12.93;;
35795;SDS011;21916;52.428;13.302;2022-11-20T11:24:25;19.38;;;11.77;;
35795;SDS011;21916;52.428;13.302;2022-11-20T11:26:55;18.00;;;11.10;;
35795;SDS011;21916;52.428;13.302;2022-11-20T11:29:24;20.55;;;12.23;;
35795;SDS011;21916;52.428;13.302;2022-11-20T11:32:04;18.15;;;11.27;;
35795;SDS011;21916;52.428;13.302;2022-11-20T11:34:37;18.00;;;11.52;;
35795;SDS011;21916;52.428;13.302;2022-11-20T11:37:03;23.13;;;12.38;;
35795;SDS011;21916;52.428;13.302;2022-11-20T11:39:35;23.35;;;12.27;;
35795;SDS011;21916;52.428;13.302;2022-11-20T11:42:07;19.17;;;12.15;;
35795;SDS011;21916;52.428;13.302;2022-11-20T11:44:44;18.33;;;11.07;;
35795;SDS011;21916;52.428;13.302;2022-11-20T11:53:21;20.80;;;12.95;;
35795;SDS011;21916;52.428;13.302;2022-11-20T12:07:08;19.08;;;12.20;;
35795;SDS011;21916;52.428;13.302;2022-11-20T12:09:42;17.20;;;11.20;;
35795;SDS011;21916;52.428;13.302;2022-11-20T12:12:15;18.67;;;10.40;;
35795;SDS011;21916;52.428;13.302;2022-11-20T12:14:45;19.00;;;10.52;;
35795;SDS011;21916;52.428;13.302;2022-11-20T12:17:13;13.95;;;9.30;;
35795;SDS011;21916;52.428;13.302;2022-11-20T12:19:39;14.18;;;8.88;;
35795;SDS011;21916;52.428;13.302;2022-11-20T12:22:19;17.58;;;9.20;;
35795;SDS011;21916;52.428;13.302;2022-11-20T12:30:08;16.27;;;7.82;;
35795;SDS011;21916;52.428;13.302;2022-11-20T12:40:41;14.55;;;6.82;;
35795;SDS011;21916;52.428;13.302;2022-11-20T12:43:19;13.15;;;6.50;;
35795;SDS011;21916;52.428;13.302;2022-11-20T12:59:19;12.75;;;7.28;;
35795;SDS011;21916;52.428;13.302;2022-11-20T13:07:02;14.68;;;7.95;;
35795;SDS011;21916;52.428;13.302;2022-11-20T13:09:32;16.02;;;8.40;;
35795;SDS011;21916;52.428;13.302;2022-11-20T13:14:40;11.93;;;6.57;;
35795;SDS011;21916;52.428;13.302;2022-11-20T13:17:17;13.95;;;7.75;;
35795;SDS011;21916;52.428;13.302;2022-11-20T13:19:57;13.38;;;7.90;;
35795;SDS011;21916;52.428;13.302;2022-11-20T13:22:42;13.52;;;8.02;;
35795;SDS011;21916;52.428;13.302;2022-11-20T13:25:25;15.10;;;7.70;;
35795;SDS011;21916;52.428;13.302;2022-11-20T13:27:55;13.88;;;7.43;;
35795;SDS011;21916;52.428;13.302;2022-11-20T13:30:24;12.57;;;7.65;;
35795;SDS011;21916;52.428;13.302;2022-11-20T13:32:55;12.75;;;7.65;;
35795;SDS011;21916;52.428;13.302;2022-11-20T13:35:26;13.68;;;7.57;;
35795;SDS011;21916;52.428;13.302;2022-11-20T13:40:34;14.50;;;8.52;;
35795;SDS011;21916;52.428;13.302;2022-11-20T13:45:55;18.40;;;8.73;;
35795;SDS011;21916;52.428;13.302;2022-11-20T13:48:24;16.23;;;10.10;;
35795;SDS011;21916;52.428;13.302;2022-11-20T14:01:31;13.75;;;8.00;;
35795;SDS011;21916;52.428;13.302;2022-11-20T14:03:58;16.27;;;8.43;;
35795;SDS011;21916;52.428;13.302;2022-11-20T14:06:31;18.88;;;9.55;;
35795;SDS011;21916;52.428;13.302;2022-11-20T14:08:59;14.70;;;8.63;;
35795;SDS011;21916;52.428;13.302;2022-11-20T14:11:29;13.63;;;7.82;;
35795;SDS011;21916;52.428;13.302;2022-11-20T14:16:49;16.42;;;8.10;;
35795;SDS011;21916;52.428;13.302;2022-11-20T14:21:45;19.38;;;9.35;;
35795;SDS011;21916;52.428;13.302;2022-11-20T14:24:20;15.25;;;8.43;;
35795;SDS011;21916;52.428;13.302;2022-11-20T14:26:48;16.83;;;8.02;;
35795;SDS011;21916;52.428;13.302;2022-11-20T14:29:16;15.60;;;7.88;;
35795;SDS011;21916;52.428;13.302;2022-11-20T14:31:44;13.70;;;7.82;;
35795;SDS011;21916;52.428;13.302;2022-11-20T14:34:45;16.00;;;8.02;;
35795;SDS011;21916;52.428;13.302;2022-11-20T14:37:09;14.27;;;7.82;;
35795;SDS011;21916;52.428;13.302;2022-11-20T14:39:40;16.63;;;9.23;;
35795;SDS011;21916;52.428;13.302;2022-11-20T14:42:14;17.58;;;9.38;;
35795;SDS011;21916;52.428;13.302;2022-11-20T14:44:42;13.60;;;8.13;;
35795;SDS011;21916;52.428;13.302;2022-11-20T14:47:10;17.85;;;9.60;;
35795;SDS011;21916;52.428;13.302;2022-11-20T14:49:38;14.85;;;8.63;;
35795;SDS011;21916;52.428;13.302;2022-11-20T14:54:46;15.93;;;9.20;;
35795;SDS011;21916;52.428;13.302;2022-11-20T14:57:33;18.25;;;9.63;;
35795;SDS011;21916;52.428;13.302;2022-11-20T15:02:30;20.48;;;9.90;;
35795;SDS011;21916;52.428;13.302;2022-11-20T15:04:57;14.70;;;9.63;;
35795;SDS011;21916;52.428;13.302;2022-11-20T15:07:29;17.50;;;10.75;;
35795;SDS011;21916;52.428;13.302;2022-11-20T15:09:59;21.55;;;10.85;;
35795;SDS011;21916;52.428;13.302;2022-11-20T15:12:31;20.80;;;10.13;;
35795;SDS011;21916;52.428;13.302;2022-11-20T15:15:00;16.85;;;10.13;;
35795;SDS011;21916;52.428;13.302;2022-11-20T15:17:28;19.05;;;10.43;;
35795;SDS011;21916;52.428;13.302;2022-11-20T15:19:55;16.25;;;8.85;;
35795;SDS011;21916;52.428;13.302;2022-11-20T15:22:21;17.60;;;10.45;;
35795;SDS011;21916;52.428;13.302;2022-11-20T15:24:47;18.80;;;11.38;;
35795;SDS011;21916;52.428;13.302;2022-11-20T15:27:13;12.45;;;6.50;;
35795;SDS011;21916;52.428;13.302;2022-11-20T15:29:40;15.07;;;7.50;;
35795;SDS011;21916;52.428;13.302;2022-11-20T15:32:07;16.77;;;10.52;;
35795;SDS011;21916;52.428;13.302;2022-11-20T15:34:34;16.90;;;9.05;;
35795;SDS011;21916;52.428;13.302;2022-11-20T15:37:00;18.20;;;10.30;;
35795;SDS011;21916;52.428;13.302;2022-11-20T15:39:26;18.85;;;9.90;;
35795;SDS011;21916;52.428;13.302;2022-11-20T15:41:54;16.90;;;9.07;;
35795;SDS011;21916;52.428;13.302;2022-11-20T15:44:20;20.48;;;10.75;;
35795;SDS011;21916;52.428;13.302;2022-11-20T15:46:46;20.65;;;11.68;;
35795;SDS011;21916;52.428;13.302;2022-11-20T15:49:14;22.35;;;11.95;;
35795;SDS011;21916;52.428;13.302;2022-11-20T15:51:42;21.25;;;11.15;;
35795;SDS011;21916;52.428;13.302;2022-11-20T15:54:12;19.30;;;11.00;;
35795;SDS011;21916;52.428;13.302;2022-11-20T15:56:38;21.13;;;11.00;;
35795;SDS011;21916;52.428;13.302;2022-11-20T15:59:07;17.85;;;11.18;;
35795;SDS011;21916;52.428;13.302;2022-11-20T16:01:33;16.70;;;10.10;;
35795;SDS011;21916;52.428;13.302;2022-11-20T16:03:59;34.85;;;19.75;;
35795;SDS011;21916;52.428;13.302;2022-11-20T16:06:26;16.17;;;9.50;;
35795;SDS011;21916;52.428;13.302;2022-11-20T16:08:52;16.05;;;10.75;;
35795;SDS011;21916;52.428;13.302;2022-11-20T16:11:20;18.27;;;11.77;;
35795;SDS011;21916;52.428;13.302;2022-11-20T16:13:47;27.95;;;16.42;;
35795;SDS011;21916;52.428;13.302;2022-11-20T16:16:32;20.80;;;11.15;;
35795;SDS011;21916;52.428;13.302;2022-11-20T16:19:01;17.50;;;11.25;;